createdAt,value
2023-03-02T00:00:42.725Z,84.14
2023-03-02T00:03:11.302Z,83.80
2023-03-02T00:05:41.246Z,84.09
2023-03-02T00:08:10.059Z,84.06
2023-03-02T00:10:38.653Z,84.08
2023-03-02T00:13:07.609Z,84.22
2023-03-02T00:15:35.325Z,84.16
2023-03-02T00:18:02.801Z,84.33
2023-03-02T00:20:30.136Z,84.36
2023-03-02T00:22:57.368Z,84.26
2023-03-02T00:25:24.661Z,84.51
2023-03-02T00:27:52.094Z,84.54
2023-03-02T00:30:21.051Z,84.54
2023-03-02T00:32:48.375Z,84.41
2023-03-02T00:35:15.972Z,84.66
2023-03-02T00:37:43.515Z,84.66
2023-03-02T00:40:12.029Z,84.28
2023-03-02T00:42:39.311Z,84.54
2023-03-02T00:45:07.860Z,84.00
2023-03-02T00:47:37.692Z,84.34
2023-03-02T00:50:07.297Z,84.26
2023-03-02T00:52:34.926Z,84.25
2023-03-02T00:55:02.252Z,84.33
2023-03-02T00:57:31.189Z,84.67
2023-03-02T00:59:58.768Z,84.58
2023-03-02T01:02:34.397Z,84.20
2023-03-02T01:05:03.219Z,84.10
2023-03-02T01:07:30.875Z,84.45
2023-03-02T01:09:58.802Z,84.58
2023-03-02T01:12:26.040Z,84.10
2023-03-02T01:14:54.168Z,84.13
2023-03-02T01:17:23.003Z,84.18
2023-03-02T01:19:50.424Z,84.43
2023-03-02T01:22:19.524Z,84.47
2023-03-02T01:24:46.831Z,84.29
2023-03-02T01:27:14.397Z,83.78
2023-03-02T01:29:41.725Z,84.08
2023-03-02T01:32:09.105Z,84.13
2023-03-02T01:34:36.445Z,83.57
2023-03-02T01:37:04.030Z,83.83
2023-03-02T01:39:33.161Z,83.73
2023-03-02T01:42:00.723Z,83.92
2023-03-02T01:44:37.700Z,83.11
2023-03-02T01:47:13.999Z,83.48
2023-03-02T01:49:51.485Z,83.24
2023-03-02T01:52:20.137Z,83.42
2023-03-02T01:54:50.960Z,83.45
2023-03-02T01:57:26.615Z,83.02
2023-03-02T01:59:59.904Z,83.26
2023-03-02T02:02:27.366Z,82.87
2023-03-02T02:04:56.823Z,82.84
2023-03-02T02:07:24.761Z,83.02
2023-03-02T02:09:54.438Z,82.34
2023-03-02T02:12:23.521Z,82.41
2023-03-02T02:15:11.686Z,83.01
2023-03-02T02:17:39.113Z,82.56
2023-03-02T02:20:19.682Z,82.56
2023-03-02T02:22:57.624Z,82.18
2023-03-02T02:25:42.942Z,82.51
2023-03-02T02:28:17.025Z,82.63
2023-03-02T02:30:47.914Z,82.66
2023-03-02T02:33:19.347Z,82.43
2023-03-02T02:35:48.049Z,82.42
2023-03-02T02:38:19.525Z,82.58
2023-03-02T02:40:51.804Z,81.98
2023-03-02T02:43:24.790Z,81.95
2023-03-02T02:45:56.849Z,82.46
2023-03-02T02:48:31.212Z,81.85
2023-03-02T02:51:00.674Z,82.11
2023-03-02T02:53:30.703Z,82.14
2023-03-02T02:55:59.589Z,81.90
2023-03-02T02:58:33.982Z,82.40
2023-03-02T03:01:02.163Z,81.72
2023-03-02T03:03:32.397Z,81.68
2023-03-02T03:06:05.549Z,81.73
2023-03-02T03:08:52.186Z,81.77
2023-03-02T03:11:26.809Z,81.61
2023-03-02T03:14:02.712Z,81.84
2023-03-02T03:16:32.814Z,81.38
2023-03-02T03:19:06.446Z,81.24
2023-03-02T03:21:33.913Z,81.26
2023-03-02T03:24:01.735Z,81.08
2023-03-02T03:26:30.255Z,81.05
2023-03-02T03:28:59.470Z,80.85
2023-03-02T03:31:28.105Z,81.30
2023-03-02T03:33:56.662Z,81.09
2023-03-02T03:36:24.173Z,81.00
2023-03-02T03:38:51.731Z,81.02
2023-03-02T03:41:19.119Z,80.99
2023-03-02T03:43:46.836Z,81.15
2023-03-02T03:46:16.424Z,80.94
2023-03-02T03:48:45.612Z,81.10
2023-03-02T03:51:13.924Z,81.27
2023-03-02T03:53:41.711Z,81.48
2023-03-02T03:56:09.234Z,81.54
2023-03-02T03:58:36.750Z,81.47
2023-03-02T04:01:04.580Z,81.34
2023-03-02T04:03:33.860Z,81.58
2023-03-02T04:06:01.790Z,81.61
2023-03-02T04:08:29.502Z,81.57
2023-03-02T04:10:56.893Z,81.77
2023-03-02T04:13:24.484Z,81.95
2023-03-02T04:15:52.081Z,81.92
2023-03-02T04:18:19.606Z,81.73
2023-03-02T04:20:48.351Z,81.83
2023-03-02T04:23:15.689Z,81.75
2023-03-02T04:25:43.393Z,81.77
2023-03-02T04:28:18.318Z,81.99
2023-03-02T04:30:46.294Z,81.69
2023-03-02T04:33:13.562Z,81.77
2023-03-02T04:35:40.847Z,82.25
2023-03-02T04:38:09.950Z,82.00
2023-03-02T04:40:37.336Z,81.81
2023-03-02T04:43:04.572Z,81.87
2023-03-02T04:45:32.166Z,81.75
2023-03-02T04:47:59.477Z,81.78
2023-03-02T04:50:27.240Z,81.68
2023-03-02T04:52:54.531Z,81.96
2023-03-02T04:55:26.142Z,81.59
2023-03-02T04:57:53.796Z,81.88
2023-03-02T05:00:21.574Z,81.50
2023-03-02T05:02:49.022Z,81.62
2023-03-02T05:05:19.524Z,81.41
2023-03-02T05:07:46.997Z,81.56
2023-03-02T05:10:16.335Z,81.45
2023-03-02T05:12:58.222Z,81.42
2023-03-02T05:15:27.627Z,81.22
2023-03-02T05:17:55.312Z,81.20
2023-03-02T05:20:27.726Z,81.18
2023-03-02T05:22:56.184Z,81.33
2023-03-02T05:25:24.335Z,81.30
2023-03-02T05:27:53.333Z,81.29
2023-03-02T05:30:21.836Z,81.04
2023-03-02T05:32:49.282Z,81.21
2023-03-02T05:35:17.241Z,81.35
2023-03-02T05:37:45.067Z,81.29
2023-03-02T05:40:16.109Z,80.98
2023-03-02T05:42:43.993Z,81.39
2023-03-02T05:45:18.703Z,81.43
2023-03-02T05:47:46.146Z,80.94
2023-03-02T05:50:13.310Z,81.32
2023-03-02T05:52:40.448Z,81.38
2023-03-02T05:55:08.613Z,81.35
2023-03-02T05:57:36.228Z,80.87
2023-03-02T06:00:05.950Z,81.09
2023-03-02T06:02:41.797Z,81.19
2023-03-02T06:05:11.179Z,81.20
2023-03-02T06:07:38.687Z,81.19
2023-03-02T06:10:07.819Z,81.41
2023-03-02T06:12:35.448Z,81.40
2023-03-02T06:15:02.933Z,80.97
2023-03-02T06:17:32.046Z,80.62
2023-03-02T06:20:00.721Z,80.74
2023-03-02T06:22:28.077Z,80.82
2023-03-02T06:24:55.505Z,80.88
2023-03-02T06:27:22.804Z,81.23
2023-03-02T06:29:50.110Z,81.70
2023-03-02T06:32:17.507Z,81.30
2023-03-02T06:34:45.118Z,80.92
2023-03-02T06:37:14.302Z,81.20
2023-03-02T06:39:41.696Z,81.75
2023-03-02T06:42:09.008Z,81.18
2023-03-02T06:44:36.326Z,81.26
2023-03-02T06:47:03.912Z,81.52
2023-03-02T06:49:31.307Z,81.04
2023-03-02T06:51:58.796Z,81.35
2023-03-02T06:54:27.489Z,81.68
2023-03-02T06:56:54.945Z,81.01
2023-03-02T06:59:22.234Z,81.34
2023-03-02T07:01:50.750Z,81.08
2023-03-02T07:04:18.285Z,80.51
2023-03-02T07:06:45.828Z,80.37
2023-03-02T07:09:12.994Z,80.08
2023-03-02T07:11:42.009Z,79.69
2023-03-02T07:14:09.400Z,79.50
2023-03-02T07:16:36.654Z,79.56
2023-03-02T07:19:04.114Z,78.97
2023-03-02T07:21:31.642Z,78.88
2023-03-02T07:23:59.177Z,79.18
2023-03-02T07:26:26.607Z,78.03
2023-03-02T07:28:55.323Z,78.48
2023-03-02T07:31:22.532Z,78.11
2023-03-02T07:33:49.905Z,77.55
2023-03-02T07:36:17.272Z,77.74
2023-03-02T07:38:44.694Z,76.77
2023-03-02T07:41:12.482Z,76.71
2023-03-02T07:43:39.925Z,76.38
2023-03-02T07:46:08.652Z,77.00
2023-03-02T07:48:36.295Z,76.85
2023-03-02T07:51:05.757Z,75.87
2023-03-02T07:53:33.482Z,75.35
2023-03-02T07:56:02.409Z,75.61
2023-03-02T07:58:29.725Z,74.82
2023-03-02T08:00:57.280Z,74.23
2023-03-02T08:03:26.845Z,74.06
2023-03-02T08:05:54.045Z,74.51
2023-03-02T08:08:21.491Z,74.61
2023-03-02T08:10:48.920Z,73.77
2023-03-02T08:13:16.491Z,73.53
2023-03-02T08:15:43.834Z,73.37
2023-03-02T08:18:11.129Z,73.39
2023-03-02T08:20:40.078Z,73.74
2023-03-02T08:23:07.419Z,73.14
2023-03-02T08:25:34.537Z,73.02
2023-03-02T08:28:01.700Z,72.49
2023-03-02T08:30:29.277Z,72.49
2023-03-02T08:32:56.816Z,72.57
2023-03-02T08:35:24.044Z,72.62
2023-03-02T08:37:52.872Z,72.07
2023-03-02T08:40:20.365Z,71.63
2023-03-02T08:42:48.287Z,71.73
2023-03-02T08:45:16.015Z,72.27
2023-03-02T08:47:43.382Z,71.52
2023-03-02T08:50:11.643Z,71.19
2023-03-02T08:52:38.998Z,71.10
2023-03-02T08:55:10.211Z,71.22
2023-03-02T08:57:37.684Z,71.05
2023-03-02T09:00:09.281Z,70.78
2023-03-02T09:02:36.547Z,71.48
2023-03-02T09:05:04.497Z,71.42
2023-03-02T09:07:31.856Z,70.65
2023-03-02T09:09:59.306Z,71.47
2023-03-02T09:12:28.202Z,71.55
2023-03-02T09:14:55.593Z,71.05
2023-03-02T09:17:22.920Z,70.91
2023-03-02T09:19:50.406Z,70.89
2023-03-02T09:22:18.664Z,70.38
2023-03-02T09:24:46.080Z,70.94
2023-03-02T09:27:13.367Z,70.39
2023-03-02T09:29:42.135Z,70.23
2023-03-02T09:32:09.717Z,70.20
2023-03-02T09:34:37.561Z,69.24
2023-03-02T09:37:04.917Z,69.69
2023-03-02T09:39:32.333Z,69.66
2023-03-02T09:42:20.580Z,69.26
2023-03-02T09:45:03.536Z,69.51
2023-03-02T09:47:38.538Z,68.66
2023-03-02T09:50:17.085Z,68.59
2023-03-02T09:52:54.111Z,68.54
2023-03-02T09:55:25.478Z,68.22
2023-03-02T09:57:54.983Z,68.08
2023-03-02T10:00:28.631Z,66.98
2023-03-02T10:03:11.325Z,67.67
2023-03-02T10:05:45.580Z,66.97
2023-03-02T10:08:15.442Z,67.14
2023-03-02T10:10:45.339Z,66.80
2023-03-02T10:13:23.263Z,67.22
2023-03-02T10:16:03.768Z,66.87
2023-03-02T10:18:38.408Z,67.63
2023-03-02T10:21:13.078Z,67.26
2023-03-02T10:23:46.535Z,67.12
2023-03-02T10:26:27.239Z,66.76
2023-03-02T10:29:01.884Z,67.30
2023-03-02T10:31:32.250Z,67.54
2023-03-02T10:34:00.908Z,67.25
2023-03-02T10:36:30.388Z,67.47
2023-03-02T10:39:00.547Z,67.85
2023-03-02T10:41:33.253Z,67.49
2023-03-02T10:44:04.796Z,67.13
2023-03-02T10:46:41.613Z,67.36
2023-03-02T10:49:25.423Z,67.39
2023-03-02T10:51:59.124Z,67.49
2023-03-02T10:54:28.819Z,67.31
2023-03-02T10:56:59.861Z,67.27
2023-03-02T10:59:43.547Z,67.57
2023-03-02T11:02:23.510Z,67.73
2023-03-02T11:04:57.637Z,67.04
2023-03-02T11:07:26.939Z,67.32
2023-03-02T11:09:59.655Z,66.83
2023-03-02T11:12:26.968Z,67.15
2023-03-02T11:15:15.039Z,67.75
2023-03-02T11:17:45.526Z,67.74
2023-03-02T11:20:17.732Z,67.09
2023-03-02T11:22:52.192Z,67.19
2023-03-02T11:25:25.657Z,67.48
2023-03-02T11:27:58.436Z,67.30
2023-03-02T11:30:27.272Z,67.40
2023-03-02T11:33:02.625Z,67.18
2023-03-02T11:35:34.313Z,66.97
2023-03-02T11:38:10.560Z,67.31
2023-03-02T11:40:47.149Z,67.50
2023-03-02T11:43:14.874Z,67.59
2023-03-02T11:45:45.736Z,67.16
2023-03-02T11:48:22.529Z,67.76
2023-03-02T11:50:57.551Z,67.63
2023-03-02T11:53:32.092Z,67.56
2023-03-02T11:55:59.515Z,67.11
2023-03-02T11:58:30.039Z,68.04
2023-03-02T12:00:58.181Z,67.39
2023-03-02T12:03:40.688Z,68.05
2023-03-02T12:06:25.455Z,68.29
2023-03-02T12:08:54.859Z,68.15
2023-03-02T12:11:34.447Z,68.03
2023-03-02T12:14:04.773Z,67.67
2023-03-02T12:16:37.350Z,68.37
2023-03-02T12:19:24.409Z,68.13
2023-03-02T12:21:58.897Z,68.32
2023-03-02T12:24:28.718Z,67.81
2023-03-02T12:27:05.143Z,67.94
2023-03-02T12:29:42.705Z,67.77
2023-03-02T12:32:13.665Z,68.02
2023-03-02T12:34:51.642Z,68.36
2023-03-02T12:37:26.235Z,67.99
2023-03-02T12:40:26.040Z,68.68
2023-03-02T12:43:19.426Z,67.87
2023-03-02T12:46:03.587Z,68.73
2023-03-02T12:48:42.779Z,68.16
2023-03-02T12:51:18.777Z,68.67
2023-03-02T12:53:46.305Z,68.14
2023-03-02T12:56:23.573Z,68.41
2023-03-02T12:58:51.747Z,68.27
2023-03-02T13:01:23.224Z,68.21
2023-03-02T13:03:54.886Z,68.09
2023-03-02T13:06:27.838Z,68.78
2023-03-02T13:08:57.494Z,68.61
2023-03-02T13:11:27.691Z,68.74
2023-03-02T13:13:55.178Z,68.06
2023-03-02T13:16:25.088Z,68.23
2023-03-02T13:18:57.115Z,68.72
2023-03-02T13:21:32.626Z,68.16
2023-03-02T13:24:00.590Z,68.13
2023-03-02T13:26:31.599Z,68.67
2023-03-02T13:29:04.706Z,67.97
2023-03-02T13:31:32.705Z,68.63
2023-03-02T13:34:01.122Z,68.10
2023-03-02T13:36:35.966Z,68.62
2023-03-02T13:39:07.158Z,68.19
2023-03-02T13:41:36.646Z,68.40
2023-03-02T13:44:19.962Z,67.51
2023-03-02T13:46:48.095Z,68.10
2023-03-02T13:49:27.068Z,68.15
2023-03-02T13:52:03.191Z,68.66
2023-03-02T13:54:32.832Z,68.32
2023-03-02T13:57:02.518Z,68.01
2023-03-02T13:59:32.286Z,68.56
2023-03-02T14:01:59.809Z,68.74
2023-03-02T14:04:27.623Z,68.23
2023-03-02T14:06:55.466Z,69.03
2023-03-02T14:09:24.337Z,68.53
2023-03-02T14:11:55.420Z,68.35
2023-03-02T14:14:25.622Z,68.34
2023-03-02T14:16:52.841Z,68.66
2023-03-02T14:19:20.291Z,68.80
2023-03-02T14:21:48.183Z,68.59
2023-03-02T14:24:15.842Z,69.11
2023-03-02T14:26:47.985Z,69.39
2023-03-02T14:29:22.262Z,68.88
2023-03-02T14:31:49.727Z,69.45
2023-03-02T14:34:17.834Z,68.79
2023-03-02T14:36:48.459Z,69.59
2023-03-02T14:39:21.692Z,69.23
2023-03-02T14:41:54.081Z,69.41
2023-03-02T14:44:22.876Z,69.88
2023-03-02T14:46:50.213Z,69.03
2023-03-02T14:49:17.636Z,69.96
2023-03-02T14:51:48.091Z,69.93
2023-03-02T14:54:19.713Z,69.42
2023-03-02T14:56:49.327Z,70.54
2023-03-02T14:59:19.192Z,70.10
2023-03-02T15:01:46.642Z,70.04
2023-03-02T15:04:13.926Z,71.16
2023-03-02T15:06:43.786Z,71.14
2023-03-02T15:12:15.989Z,71.60
2023-03-02T15:14:44.867Z,71.97
2023-03-02T15:17:12.392Z,72.03
2023-03-02T15:19:39.690Z,72.73
2023-03-02T15:22:07.223Z,72.29
2023-03-02T15:24:34.592Z,72.83
2023-03-02T15:27:02.154Z,73.10
2023-03-02T15:29:29.477Z,73.15
2023-03-02T15:31:58.309Z,74.08
2023-03-02T15:34:25.746Z,74.40
2023-03-02T15:36:53.034Z,74.62
2023-03-02T15:39:20.679Z,74.75
2023-03-02T15:41:47.940Z,74.92
2023-03-02T15:44:22.112Z,74.60
2023-03-02T15:46:50.094Z,75.12
2023-03-02T15:49:23.036Z,75.12
2023-03-02T15:51:52.104Z,75.76
2023-03-02T15:54:19.843Z,75.68
2023-03-02T15:56:52.091Z,76.13
2023-03-02T15:59:19.547Z,75.93
2023-03-02T16:01:49.578Z,76.35
2023-03-02T16:04:18.475Z,76.37
2023-03-02T16:06:46.160Z,76.09
2023-03-02T16:09:13.761Z,76.76
2023-03-02T16:11:41.067Z,76.40
2023-03-02T16:14:14.200Z,76.83
2023-03-02T16:16:41.463Z,76.29
2023-03-02T16:19:11.894Z,76.59
2023-03-02T16:21:41.086Z,76.30
2023-03-02T16:24:09.510Z,76.88
2023-03-02T16:26:38.159Z,76.64
2023-03-02T16:29:08.177Z,77.04
2023-03-02T16:31:38.100Z,76.59
2023-03-02T16:34:07.780Z,76.52
2023-03-02T16:36:36.627Z,76.46
2023-03-02T16:39:07.474Z,76.93
2023-03-02T16:41:35.653Z,77.27
2023-03-02T16:44:03.450Z,76.97
2023-03-02T16:46:32.652Z,76.66
2023-03-02T16:48:59.953Z,77.25
2023-03-02T16:51:27.996Z,76.81
2023-03-02T16:53:55.311Z,77.35
2023-03-02T16:56:24.287Z,77.00
2023-03-02T16:58:53.155Z,76.95
2023-03-02T17:01:22.433Z,77.09
2023-03-02T17:03:51.170Z,77.65
2023-03-02T17:06:24.083Z,77.96
2023-03-02T17:08:52.161Z,77.75
2023-03-02T17:11:20.009Z,78.39
2023-03-02T17:13:49.374Z,77.91
2023-03-02T17:16:16.927Z,78.79
2023-03-02T17:18:47.124Z,78.92
2023-03-02T17:21:16.741Z,78.49
2023-03-02T17:23:44.438Z,78.87
2023-03-02T17:26:11.801Z,79.68
2023-03-02T17:28:39.432Z,79.58
2023-03-02T17:31:08.691Z,79.65
2023-03-02T17:33:37.890Z,79.49
2023-03-02T17:36:07.534Z,80.14
2023-03-02T17:38:34.849Z,80.36
2023-03-02T17:41:03.652Z,80.22
2023-03-02T17:43:32.864Z,80.43
2023-03-02T17:46:14.483Z,80.33
2023-03-02T17:48:42.663Z,80.18
2023-03-02T17:51:11.935Z,80.47
2023-03-02T17:53:39.576Z,81.42
2023-03-02T17:56:07.655Z,81.31
2023-03-02T17:58:44.656Z,81.64
2023-03-02T18:01:15.986Z,81.16
2023-03-02T18:03:45.216Z,81.90
2023-03-02T18:06:13.631Z,81.49
2023-03-02T18:08:41.194Z,82.03
2023-03-02T18:11:08.694Z,81.59
2023-03-02T18:13:36.256Z,81.88
2023-03-02T18:16:03.857Z,81.91
2023-03-02T18:18:32.850Z,81.54
2023-03-02T18:21:00.301Z,82.35
2023-03-02T18:23:28.083Z,82.72
2023-03-02T18:25:55.334Z,81.80
2023-03-02T18:28:22.859Z,82.10
2023-03-02T18:30:50.331Z,82.17
2023-03-02T18:33:18.094Z,82.20
2023-03-02T18:35:46.988Z,82.37
2023-03-02T18:38:14.300Z,82.60
2023-03-02T18:40:41.962Z,83.32
2023-03-02T18:43:09.809Z,82.66
2023-03-02T18:45:37.210Z,82.53
2023-03-02T18:48:07.422Z,82.64
2023-03-02T18:50:34.938Z,83.51
2023-03-02T18:53:04.032Z,82.58
2023-03-02T18:55:31.598Z,83.20
2023-03-02T18:57:59.003Z,83.26
2023-03-02T19:00:28.274Z,83.43
2023-03-02T19:02:55.781Z,83.57
2023-03-02T19:05:27.005Z,83.60
2023-03-02T19:07:54.967Z,83.35
2023-03-02T19:10:23.900Z,83.95
2023-03-02T19:12:51.335Z,83.91
2023-03-02T19:15:19.625Z,83.10
2023-03-02T19:17:48.986Z,84.09
2023-03-02T19:20:17.944Z,84.07
2023-03-02T19:22:45.188Z,84.03
2023-03-02T19:25:13.052Z,83.35
2023-03-02T19:27:41.934Z,84.55
2023-03-02T19:30:15.832Z,84.08
2023-03-02T19:32:43.261Z,84.55
2023-03-02T19:35:14.642Z,84.02
2023-03-02T19:37:42.771Z,84.23
2023-03-02T19:40:11.648Z,84.38
2023-03-02T19:42:41.651Z,84.23
2023-03-02T19:45:13.617Z,84.34
2023-03-02T19:47:41.401Z,84.36
2023-03-02T19:50:13.444Z,84.58
2023-03-02T19:52:42.252Z,84.77
2023-03-02T19:55:12.637Z,84.83
2023-03-02T19:57:43.025Z,84.19
2023-03-02T20:00:14.660Z,84.97
2023-03-02T20:02:42.011Z,84.64
2023-03-02T20:05:11.028Z,85.15
2023-03-02T20:07:41.576Z,85.58
2023-03-02T20:10:10.782Z,85.15
2023-03-02T20:12:38.273Z,85.05
2023-03-02T20:15:08.021Z,85.51
2023-03-02T20:17:35.359Z,84.77
2023-03-02T20:20:03.751Z,85.47
2023-03-02T20:22:31.081Z,85.78
2023-03-02T20:24:58.480Z,84.90
2023-03-02T20:27:26.045Z,85.86
2023-03-02T20:29:53.640Z,85.71
2023-03-02T20:32:22.721Z,85.48
2023-03-02T20:34:50.348Z,85.41
2023-03-02T20:37:17.953Z,85.08
2023-03-02T20:39:48.059Z,85.59
2023-03-02T20:42:15.812Z,86.06
2023-03-02T20:44:43.741Z,85.83
2023-03-02T20:47:14.803Z,85.58
2023-03-02T20:49:44.077Z,86.26
2023-03-02T20:52:11.612Z,86.38
2023-03-02T20:54:41.921Z,86.08
2023-03-02T20:57:09.719Z,85.70
2023-03-02T20:59:37.762Z,85.98
2023-03-02T21:02:05.180Z,85.78
2023-03-02T21:04:33.357Z,85.63
2023-03-02T21:07:02.390Z,85.77
2023-03-02T21:09:29.665Z,86.46
2023-03-02T21:11:58.961Z,86.79
2023-03-02T21:14:30.808Z,85.76
2023-03-02T21:16:59.112Z,86.38
2023-03-02T21:19:29.247Z,86.47
2023-03-02T21:21:57.658Z,86.78
2023-03-02T21:24:26.595Z,85.94
2023-03-02T21:26:55.278Z,86.73
2023-03-02T21:29:24.833Z,86.99
2023-03-02T21:31:52.429Z,86.24
2023-03-02T21:34:20.221Z,86.63
2023-03-02T21:36:48.461Z,87.13
2023-03-02T21:39:16.563Z,87.27
2023-03-02T21:41:45.539Z,87.25
2023-03-02T21:44:13.228Z,86.53
2023-03-02T21:46:40.962Z,87.06
2023-03-02T21:49:08.599Z,86.67
2023-03-02T21:51:36.210Z,87.43
2023-03-02T21:54:04.400Z,87.10
2023-03-02T21:56:31.857Z,87.01
2023-03-02T21:59:00.935Z,86.91
2023-03-02T22:01:30.014Z,87.42
2023-03-02T22:03:57.438Z,87.11
2023-03-02T22:06:26.749Z,87.54
2023-03-02T22:08:55.736Z,87.31
2023-03-02T22:11:24.992Z,87.38
2023-03-02T22:13:54.107Z,87.26
2023-03-02T22:16:24.496Z,87.31
2023-03-02T22:18:55.665Z,87.95
2023-03-02T22:21:32.083Z,87.89
2023-03-02T22:24:18.421Z,88.22
2023-03-02T22:26:46.184Z,87.23
2023-03-02T22:29:16.726Z,88.00
2023-03-02T22:31:48.893Z,88.05
2023-03-02T22:34:20.540Z,88.14
2023-03-02T22:36:48.867Z,88.49
2023-03-02T22:39:18.388Z,88.16
2023-03-02T22:41:45.825Z,87.96
2023-03-02T22:44:14.078Z,88.18
2023-03-02T22:46:41.795Z,88.55
2023-03-02T22:49:17.866Z,88.02
2023-03-02T22:51:45.436Z,88.59
2023-03-02T22:54:21.001Z,88.37
2023-03-02T22:56:49.846Z,88.28
2023-03-02T22:59:22.611Z,88.24
2023-03-02T23:01:50.572Z,88.11
2023-03-02T23:04:21.869Z,88.73
2023-03-02T23:06:50.656Z,89.02
2023-03-02T23:09:21.766Z,88.97
2023-03-02T23:11:50.129Z,89.11
2023-03-02T23:14:28.622Z,88.83
2023-03-02T23:17:00.173Z,88.56
2023-03-02T23:19:31.098Z,88.43
2023-03-02T23:21:58.966Z,88.70
2023-03-02T23:24:26.588Z,88.92
2023-03-02T23:26:53.819Z,89.37
2023-03-02T23:29:22.021Z,88.74
2023-03-02T23:31:49.769Z,88.51
2023-03-02T23:34:17.094Z,88.92
2023-03-02T23:36:45.771Z,89.57
2023-03-02T23:39:13.427Z,89.49
2023-03-02T23:41:40.846Z,89.70
2023-03-02T23:44:08.773Z,89.32
2023-03-02T23:46:36.306Z,88.94
2023-03-02T23:49:03.596Z,89.27
2023-03-02T23:51:31.365Z,88.74
2023-03-02T23:54:00.365Z,89.62
2023-03-02T23:56:27.870Z,88.84
2023-03-02T23:58:55.281Z,89.43
